Flight Information

DEPARTURE
SANTA BARBARA, CA
Elevation:
13
Runways:
7/25 - 6052x150 - ASPH-G
15R/33L - 4184x100 - ASPH-G
15L/33R - 4180x75 - ASPH-G
ATIS:
132.65
Clearance Delivery:
132.9
Ground:
121.7
Tower:
119.7
DESTINATION
LOS ANGELES, CA
Elevation:
127
TPA:
1127 (est.)
Runways:
6R/24L - 10885x150 - CONC-G
7L/25R - 12923x150 - CONC-G
7R/25L - 11095x200 - ASPH-CONC-G
6L/24R - 8926x150 - ASPH-CONC-G
ATIS:
ARR 133.8 DEP 135.65 310-646-2297
Tower:
133.9 (N. complex), 120.95 (S. complex) 119.8
Ground:
121.75 (S. complex) 121.65 (N. complex)


76.8 NM112° True-14° Var97° HDG

Flight Plan:
(click to file on line)

1. Type
2. Aircraft Identification
3. Aircraft Type / Special Equipment
4. True Airspeed
kts
5. Departure Airport
(ICAO code)
6. Arriving Airport
(ICAO code)
7. Cruising Altitude
ft
8. Alternate Airport
(ICAO code)
9. Route of Flight
10. Remarks


00:00:00 Departure ATIS: Destination ATIS:

Clearance Limit:
Route:
Altitude: Expect in minutes
Frequency:
Transponder: (7500 Hijack / 7600 Lost Comms / 7700 Emergency)


KSBA 181318Z COR 00000KT 1/4SM R07/3000V6000FT FG VVC002 13/13 A2994 RMK AO2 T01330128 $
Time: 2022-08-18T13:18:00Z
1660829031
Winds: calm
Visibility: 0.25 sm
Clouds (AGL):
Temperature: 13.3 C
Dew Point: 12.8 C
Pressure: 29.940945 in Hgbr

KLAX 181253Z 28006KT 3/4SM R25L/P6000FT BR VV003 17/16 A2992 RMK AO2 SLP131 VIS N-E 1/4 VIS SE 1 1/2 T01720161
Time: 2022-08-18T12:53:00Z
1660829031
Winds: 280 @ 6 kts
Visibility: 0.75 sm
Clouds (AGL): OVX 0
Temperature: 17.2 C
Dew Point: 16.1 C
Pressure: 29.920275 in Hgbr


Notes:

Data extracted from FAA Digital Chart Supplement. Effective: 0901Z Thursday, 27 JAN 2022 to 0900z Thursday, 24 MAR 2022
Current ATIS data is provided courtisy of PilotEdge.